sensor_id;sensor_type;location;lat;lon;timestamp;pressure;altitude;pressure_sealevel;temperature;humidity
44297;BME280;51842;47.450;8.654;2023-02-19T00:02:18;96279.41;;;6.83;88.26
44297;BME280;51842;47.450;8.654;2023-02-19T00:04:43;96269.28;;;6.80;88.32
44297;BME280;51842;47.450;8.654;2023-02-19T00:07:09;96276.06;;;6.76;88.12
44297;BME280;51842;47.450;8.654;2023-02-19T00:09:49;96271.66;;;6.69;88.71
44297;BME280;51842;47.450;8.654;2023-02-19T00:12:15;96273.94;;;6.66;88.85
44297;BME280;51842;47.450;8.654;2023-02-19T00:14:41;96269.09;;;6.63;88.74
44297;BME280;51842;47.450;8.654;2023-02-19T00:17:10;96272.97;;;6.60;89.12
44297;BME280;51842;47.450;8.654;2023-02-19T00:19:35;96266.53;;;6.56;88.97
44297;BME280;51842;47.450;8.654;2023-02-19T00:22:07;96264.75;;;6.50;89.28
44297;BME280;51842;47.450;8.654;2023-02-19T00:24:36;96271.09;;;6.49;89.70
44297;BME280;51842;47.450;8.654;2023-02-19T00:27:11;96268.06;;;6.45;89.43
44297;BME280;51842;47.450;8.654;2023-02-19T00:29:37;96260.34;;;6.44;90.10
44297;BME280;51842;47.450;8.654;2023-02-19T00:32:06;96262.75;;;6.45;90.39
44297;BME280;51842;47.450;8.654;2023-02-19T00:34:32;96262.31;;;6.48;89.96
44297;BME280;51842;47.450;8.654;2023-02-19T00:37:04;96256.22;;;6.48;89.65
44297;BME280;51842;47.450;8.654;2023-02-19T00:39:29;96262.31;;;6.48;89.72
44297;BME280;51842;47.450;8.654;2023-02-19T00:41:55;96259.09;;;6.46;89.71
44297;BME280;51842;47.450;8.654;2023-02-19T00:44:21;96257.91;;;6.42;89.99
44297;BME280;51842;47.450;8.654;2023-02-19T00:46:47;96257.72;;;6.44;89.88
44297;BME280;51842;47.450;8.654;2023-02-19T00:49:22;96253.66;;;6.41;89.95
44297;BME280;51842;47.450;8.654;2023-02-19T00:51:57;96254.91;;;6.39;89.73
44297;BME280;51842;47.450;8.654;2023-02-19T00:54:23;96256.38;;;6.35;90.30
44297;BME280;51842;47.450;8.654;2023-02-19T00:56:58;96258.66;;;6.31;90.47
44297;BME280;51842;47.450;8.654;2023-02-19T00:59:26;96251.19;;;6.28;90.44
44297;BME280;51842;47.450;8.654;2023-02-19T01:01:52;96256.53;;;6.21;90.33
44297;BME280;51842;47.450;8.654;2023-02-19T01:04:18;96261.47;;;6.18;90.80
44297;BME280;51842;47.450;8.654;2023-02-19T01:06:46;96257.84;;;6.12;91.19
44297;BME280;51842;47.450;8.654;2023-02-19T01:09:17;96259.53;;;6.07;91.34
44297;BME280;51842;47.450;8.654;2023-02-19T01:11:43;96253.50;;;5.99;91.05
44297;BME280;51842;47.450;8.654;2023-02-19T01:14:10;96253.59;;;5.93;91.75
44297;BME280;51842;47.450;8.654;2023-02-19T01:16:42;96245.47;;;5.88;92.01
44297;BME280;51842;47.450;8.654;2023-02-19T01:19:26;96252.22;;;5.84;92.47
44297;BME280;51842;47.450;8.654;2023-02-19T01:21:55;96245.34;;;5.76;92.02
44297;BME280;51842;47.450;8.654;2023-02-19T01:24:23;96246.22;;;5.70;92.89
44297;BME280;51842;47.450;8.654;2023-02-19T01:26:49;96241.59;;;5.65;92.67
44297;BME280;51842;47.450;8.654;2023-02-19T01:29:20;96248.34;;;5.61;92.84
44297;BME280;51842;47.450;8.654;2023-02-19T01:31:51;96244.13;;;5.53;92.20
44297;BME280;51842;47.450;8.654;2023-02-19T01:34:17;96250.16;;;5.42;91.57
44297;BME280;51842;47.450;8.654;2023-02-19T01:36:51;96246.56;;;5.30;90.97
44297;BME280;51842;47.450;8.654;2023-02-19T01:39:16;96246.69;;;5.10;92.04
44297;BME280;51842;47.450;8.654;2023-02-19T01:41:48;96252.06;;;4.97;91.37
44297;BME280;51842;47.450;8.654;2023-02-19T01:46:46;96249.31;;;4.78;94.00
44297;BME280;51842;47.450;8.654;2023-02-19T01:52:34;96244.91;;;4.72;96.64
44297;BME280;51842;47.450;8.654;2023-02-19T01:55:05;96237.63;;;4.68;96.64
44297;BME280;51842;47.450;8.654;2023-02-19T01:57:43;96238.63;;;4.67;96.27
44297;BME280;51842;47.450;8.654;2023-02-19T02:00:15;96237.81;;;4.66;98.30
44297;BME280;51842;47.450;8.654;2023-02-19T02:02:53;96233.53;;;4.72;99.16
44297;BME280;51842;47.450;8.654;2023-02-19T02:06:01;96215.81;;;4.79;99.06
44297;BME280;51842;47.450;8.654;2023-02-19T02:08:32;96211.53;;;4.84;98.85
44297;BME280;51842;47.450;8.654;2023-02-19T02:11:19;96202.16;;;4.88;99.57
44297;BME280;51842;47.450;8.654;2023-02-19T02:13:57;96193.78;;;4.98;99.06
44297;BME280;51842;47.450;8.654;2023-02-19T02:22:52;96194.69;;;5.10;98.85
44297;BME280;51842;47.450;8.654;2023-02-19T02:26:19;96186.75;;;5.10;98.33
44297;BME280;51842;47.450;8.654;2023-02-19T02:32:32;96188.59;;;5.10;97.99
44297;BME280;51842;47.450;8.654;2023-02-19T02:35:09;96185.38;;;5.08;98.01
44297;BME280;51842;47.450;8.654;2023-02-19T02:37:44;96180.31;;;5.06;97.75
44297;BME280;51842;47.450;8.654;2023-02-19T02:40:17;96171.78;;;5.04;97.57
44297;BME280;51842;47.450;8.654;2023-02-19T02:42:57;96171.19;;;5.02;97.66
44297;BME280;51842;47.450;8.654;2023-02-19T02:45:31;96172.84;;;4.97;97.17
44297;BME280;51842;47.450;8.654;2023-02-19T02:54:04;96176.72;;;4.94;98.42
44297;BME280;51842;47.450;8.654;2023-02-19T02:56:52;96177.97;;;4.92;98.01
44297;BME280;51842;47.450;8.654;2023-02-19T02:59:28;96177.16;;;4.91;99.37
44297;BME280;51842;47.450;8.654;2023-02-19T03:02:19;96172.84;;;4.97;100.00
44297;BME280;51842;47.450;8.654;2023-02-19T03:05:25;96172.81;;;5.03;99.71
44297;BME280;51842;47.450;8.654;2023-02-19T03:08:27;96176.81;;;5.13;99.83
44297;BME280;51842;47.450;8.654;2023-02-19T03:11:09;96188.34;;;5.18;99.67
44297;BME280;51842;47.450;8.654;2023-02-19T03:14:30;96180.13;;;5.26;99.02
44297;BME280;51842;47.450;8.654;2023-02-19T03:17:34;96185.97;;;5.35;99.01
44297;BME280;51842;47.450;8.654;2023-02-19T03:20:23;96175.72;;;5.45;98.46
44297;BME280;51842;47.450;8.654;2023-02-19T03:22:52;96175.22;;;5.55;98.04
44297;BME280;51842;47.450;8.654;2023-02-19T03:25:39;96194.03;;;5.65;97.77
44297;BME280;51842;47.450;8.654;2023-02-19T03:28:31;96198.81;;;5.75;97.05
44297;BME280;51842;47.450;8.654;2023-02-19T03:31:22;96191.41;;;5.84;96.53
44297;BME280;51842;47.450;8.654;2023-02-19T03:34:02;96189.72;;;5.89;95.86
44297;BME280;51842;47.450;8.654;2023-02-19T03:36:41;96188.03;;;5.95;95.31
44297;BME280;51842;47.450;8.654;2023-02-19T03:39:15;96182.09;;;5.99;94.85
44297;BME280;51842;47.450;8.654;2023-02-19T03:41:59;96176.16;;;6.04;94.75
44297;BME280;51842;47.450;8.654;2023-02-19T03:54:54;96217.59;;;6.29;93.16
44297;BME280;51842;47.450;8.654;2023-02-19T04:00:56;96221.78;;;6.36;92.84
44297;BME280;51842;47.450;8.654;2023-02-19T04:03:47;96205.47;;;6.39;93.21
44297;BME280;51842;47.450;8.654;2023-02-19T04:06:26;96203.16;;;6.43;93.20
44297;BME280;51842;47.450;8.654;2023-02-19T04:09:03;96197.28;;;6.41;93.33
44297;BME280;51842;47.450;8.654;2023-02-19T04:11:32;96194.63;;;6.41;93.33
44297;BME280;51842;47.450;8.654;2023-02-19T04:14:26;96177.72;;;6.42;93.18
44297;BME280;51842;47.450;8.654;2023-02-19T04:17:36;96172.88;;;6.39;93.55
44297;BME280;51842;47.450;8.654;2023-02-19T04:20:09;96161.47;;;6.38;93.30
44297;BME280;51842;47.450;8.654;2023-02-19T04:22:38;96169.41;;;6.38;93.36
44297;BME280;51842;47.450;8.654;2023-02-19T04:25:13;96156.28;;;6.32;93.62
44297;BME280;51842;47.450;8.654;2023-02-19T04:27:45;96155.47;;;6.31;93.71
44297;BME280;51842;47.450;8.654;2023-02-19T04:30:14;96164.22;;;6.32;93.96
44297;BME280;51842;47.450;8.654;2023-02-19T04:32:40;96175.03;;;6.30;93.77
44297;BME280;51842;47.450;8.654;2023-02-19T04:35:08;96158.34;;;6.30;93.74
44297;BME280;51842;47.450;8.654;2023-02-19T04:37:34;96154.75;;;6.24;94.07
44297;BME280;51842;47.450;8.654;2023-02-19T04:40:00;96149.59;;;6.29;94.09
44297;BME280;51842;47.450;8.654;2023-02-19T04:42:26;96156.72;;;6.29;94.07
44297;BME280;51842;47.450;8.654;2023-02-19T04:44:55;96147.41;;;6.26;94.23
44297;BME280;51842;47.450;8.654;2023-02-19T04:47:21;96144.31;;;6.29;94.40
44297;BME280;51842;47.450;8.654;2023-02-19T04:49:47;96152.38;;;6.34;94.25
44297;BME280;51842;47.450;8.654;2023-02-19T04:52:16;96171.72;;;6.35;94.55
44297;BME280;51842;47.450;8.654;2023-02-19T04:54:48;96172.41;;;6.30;95.05
44297;BME280;51842;47.450;8.654;2023-02-19T04:57:16;96163.19;;;6.33;95.87
44297;BME280;51842;47.450;8.654;2023-02-19T04:59:48;96161.94;;;6.35;96.91
44297;BME280;51842;47.450;8.654;2023-02-19T05:02:23;96177.44;;;6.32;97.52
44297;BME280;51842;47.450;8.654;2023-02-19T05:04:49;96178.25;;;6.32;97.92
44297;BME280;51842;47.450;8.654;2023-02-19T05:07:25;96185.75;;;6.35;98.26
44297;BME280;51842;47.450;8.654;2023-02-19T05:09:51;96196.78;;;6.32;98.84
44297;BME280;51842;47.450;8.654;2023-02-19T05:12:17;96191.47;;;6.32;99.26
44297;BME280;51842;47.450;8.654;2023-02-19T05:14:49;96186.44;;;6.31;99.57
44297;BME280;51842;47.450;8.654;2023-02-19T05:17:15;96182.97;;;6.30;99.59
44297;BME280;51842;47.450;8.654;2023-02-19T05:19:41;96194.94;;;6.33;99.51
44297;BME280;51842;47.450;8.654;2023-02-19T05:22:19;96200.81;;;6.35;99.04
44297;BME280;51842;47.450;8.654;2023-02-19T05:24:48;96203.25;;;6.36;99.13
44297;BME280;51842;47.450;8.654;2023-02-19T05:27:14;96198.78;;;6.37;99.22
44297;BME280;51842;47.450;8.654;2023-02-19T05:29:42;96190.03;;;6.36;99.11
44297;BME280;51842;47.450;8.654;2023-02-19T05:32:15;96191.47;;;6.32;99.68
44297;BME280;51842;47.450;8.654;2023-02-19T05:34:44;96187.44;;;6.30;99.57
44297;BME280;51842;47.450;8.654;2023-02-19T05:37:16;96194.00;;;6.27;99.63
44297;BME280;51842;47.450;8.654;2023-02-19T05:39:45;96194.81;;;6.28;99.65
44297;BME280;51842;47.450;8.654;2023-02-19T05:42:14;96201.94;;;6.27;99.32
44297;BME280;51842;47.450;8.654;2023-02-19T05:44:41;96191.34;;;6.27;99.30
44297;BME280;51842;47.450;8.654;2023-02-19T05:47:07;96189.59;;;6.21;98.31
44297;BME280;51842;47.450;8.654;2023-02-19T05:49:36;96191.34;;;6.27;98.37
44297;BME280;51842;47.450;8.654;2023-02-19T05:52:08;96189.88;;;6.31;98.05
44297;BME280;51842;47.450;8.654;2023-02-19T05:54:34;96204.16;;;6.30;97.81
44297;BME280;51842;47.450;8.654;2023-02-19T05:57:03;96201.06;;;6.33;97.59
44297;BME280;51842;47.450;8.654;2023-02-19T05:59:28;96215.66;;;6.36;97.99
44297;BME280;51842;47.450;8.654;2023-02-19T06:01:55;96215.22;;;6.39;97.72
44297;BME280;51842;47.450;8.654;2023-02-19T06:04:21;96212.56;;;6.39;97.21
44297;BME280;51842;47.450;8.654;2023-02-19T06:06:53;96227.19;;;6.41;96.92
44297;BME280;51842;47.450;8.654;2023-02-19T06:09:22;96242.03;;;6.42;97.09
44297;BME280;51842;47.450;8.654;2023-02-19T06:11:51;96239.97;;;6.44;97.29
44297;BME280;51842;47.450;8.654;2023-02-19T06:14:16;96259.56;;;6.43;96.67
44297;BME280;51842;47.450;8.654;2023-02-19T06:16:42;96255.41;;;6.47;96.89
44297;BME280;51842;47.450;8.654;2023-02-19T06:19:20;96265.66;;;6.44;96.52
44297;BME280;51842;47.450;8.654;2023-02-19T06:21:49;96261.75;;;6.46;96.60
44297;BME280;51842;47.450;8.654;2023-02-19T06:24:15;96255.06;;;6.44;96.55
44297;BME280;51842;47.450;8.654;2023-02-19T06:26:48;96260.94;;;6.46;96.17
44297;BME280;51842;47.450;8.654;2023-02-19T06:29:16;96266.00;;;6.47;96.01
44297;BME280;51842;47.450;8.654;2023-02-19T06:31:44;96269.69;;;6.46;96.11
44297;BME280;51842;47.450;8.654;2023-02-19T06:34:10;96268.28;;;6.44;96.24
44297;BME280;51842;47.450;8.654;2023-02-19T06:36:36;96273.94;;;6.47;96.31
44297;BME280;51842;47.450;8.654;2023-02-19T06:39:05;96281.28;;;6.45;96.07
44297;BME280;51842;47.450;8.654;2023-02-19T06:41:32;96278.44;;;6.47;96.13
44297;BME280;51842;47.450;8.654;2023-02-19T06:43:58;96283.13;;;6.45;96.29
44297;BME280;51842;47.450;8.654;2023-02-19T06:46:27;96274.19;;;6.46;96.61
44297;BME280;51842;47.450;8.654;2023-02-19T06:48:59;96289.03;;;6.47;96.42
44297;BME280;51842;47.450;8.654;2023-02-19T06:51:25;96284.19;;;6.44;96.81
44297;BME280;51842;47.450;8.654;2023-02-19T06:53:53;96284.97;;;6.44;96.51
44297;BME280;51842;47.450;8.654;2023-02-19T06:56:31;96285.56;;;6.46;96.54
44297;BME280;51842;47.450;8.654;2023-02-19T06:59:02;96299.97;;;6.51;96.42
44297;BME280;51842;47.450;8.654;2023-02-19T07:01:32;96306.66;;;6.53;96.67
44297;BME280;51842;47.450;8.654;2023-02-19T07:04:00;96305.88;;;6.53;96.45
44297;BME280;51842;47.450;8.654;2023-02-19T07:06:27;96310.34;;;6.52;96.08
44297;BME280;51842;47.450;8.654;2023-02-19T07:08:56;96321.50;;;6.54;96.23
44297;BME280;51842;47.450;8.654;2023-02-19T07:11:24;96319.03;;;6.59;95.85
44297;BME280;51842;47.450;8.654;2023-02-19T07:14:02;96318.59;;;6.62;95.68
44297;BME280;51842;47.450;8.654;2023-02-19T07:16:29;96312.03;;;6.65;95.44
44297;BME280;51842;47.450;8.654;2023-02-19T07:18:58;96326.00;;;6.72;95.47
44297;BME280;51842;47.450;8.654;2023-02-19T07:21:26;96324.16;;;6.72;94.88
44297;BME280;51842;47.450;8.654;2023-02-19T07:23:53;96331.44;;;6.77;94.83
44297;BME280;51842;47.450;8.654;2023-02-19T07:26:21;96335.88;;;6.83;94.89
44297;BME280;51842;47.450;8.654;2023-02-19T07:28:51;96346.81;;;6.87;94.23
44297;BME280;51842;47.450;8.654;2023-02-19T07:31:21;96349.66;;;6.85;94.06
44297;BME280;51842;47.450;8.654;2023-02-19T07:33:49;96362.72;;;6.87;94.01
44297;BME280;51842;47.450;8.654;2023-02-19T07:36:17;96360.41;;;6.90;93.72
44297;BME280;51842;47.450;8.654;2023-02-19T07:38:53;96366.75;;;6.89;93.66
44297;BME280;51842;47.450;8.654;2023-02-19T07:41:20;96376.22;;;6.97;93.60
44297;BME280;51842;47.450;8.654;2023-02-19T07:43:46;96365.19;;;7.00;93.39
44297;BME280;51842;47.450;8.654;2023-02-19T07:46:15;96378.19;;;7.02;93.51
44297;BME280;51842;47.450;8.654;2023-02-19T07:48:42;96374.31;;;7.04;93.01
44297;BME280;51842;47.450;8.654;2023-02-19T07:51:18;96379.16;;;7.07;93.12
44297;BME280;51842;47.450;8.654;2023-02-19T07:53:46;96386.22;;;7.13;93.12
44297;BME280;51842;47.450;8.654;2023-02-19T07:56:12;96393.97;;;7.15;92.65
44297;BME280;51842;47.450;8.654;2023-02-19T07:58:39;96396.97;;;7.18;92.47
44297;BME280;51842;47.450;8.654;2023-02-19T08:01:20;96392.19;;;7.27;92.62
44297;BME280;51842;47.450;8.654;2023-02-19T08:04:05;96393.94;;;7.33;92.27
44297;BME280;51842;47.450;8.654;2023-02-19T08:06:31;96400.97;;;7.39;91.83
44297;BME280;51842;47.450;8.654;2023-02-19T08:08:56;96405.38;;;7.46;91.44
44297;BME280;51842;47.450;8.654;2023-02-19T08:11:26;96406.56;;;7.50;90.78
44297;BME280;51842;47.450;8.654;2023-02-19T08:14:18;96403.09;;;7.49;90.17
44297;BME280;51842;47.450;8.654;2023-02-19T08:16:50;96406.91;;;7.53;90.28
44297;BME280;51842;47.450;8.654;2023-02-19T08:19:16;96402.75;;;7.57;90.27
44297;BME280;51842;47.450;8.654;2023-02-19T08:21:42;96414.09;;;7.64;89.58
44297;BME280;51842;47.450;8.654;2023-02-19T08:24:08;96408.72;;;7.71;89.39
44297;BME280;51842;47.450;8.654;2023-02-19T08:26:35;96413.56;;;7.74;88.98
44297;BME280;51842;47.450;8.654;2023-02-19T08:29:02;96415.53;;;7.79;88.43
44297;BME280;51842;47.450;8.654;2023-02-19T08:31:28;96417.28;;;7.85;88.47
44297;BME280;51842;47.450;8.654;2023-02-19T08:33:54;96427.13;;;7.96;88.16
44297;BME280;51842;47.450;8.654;2023-02-19T08:36:20;96423.09;;;8.05;87.85
44297;BME280;51842;47.450;8.654;2023-02-19T08:38:46;96433.38;;;8.14;88.02
44297;BME280;51842;47.450;8.654;2023-02-19T08:41:14;96435.81;;;8.15;86.94
44297;BME280;51842;47.450;8.654;2023-02-19T08:43:42;96433.16;;;8.15;86.23
44297;BME280;51842;47.450;8.654;2023-02-19T08:46:10;96437.31;;;8.23;86.36
44297;BME280;51842;47.450;8.654;2023-02-19T08:48:37;96437.75;;;8.20;85.48
44297;BME280;51842;47.450;8.654;2023-02-19T08:51:09;96443.06;;;8.20;84.92
44297;BME280;51842;47.450;8.654;2023-02-19T08:53:40;96445.88;;;8.25;85.31
44297;BME280;51842;47.450;8.654;2023-02-19T08:56:13;96441.72;;;8.29;84.98
44297;BME280;51842;47.450;8.654;2023-02-19T08:58:40;96440.91;;;8.28;84.44
44297;BME280;51842;47.450;8.654;2023-02-19T09:01:15;96438.34;;;8.33;83.79
44297;BME280;51842;47.450;8.654;2023-02-19T09:03:48;96430.91;;;8.42;83.74
44297;BME280;51842;47.450;8.654;2023-02-19T09:06:19;96437.84;;;8.43;83.03
44297;BME280;51842;47.450;8.654;2023-02-19T09:08:51;96456.63;;;8.42;83.53
44297;BME280;51842;47.450;8.654;2023-02-19T09:11:17;96450.53;;;8.41;82.42
44297;BME280;51842;47.450;8.654;2023-02-19T09:13:43;96444.84;;;8.38;81.80
44297;BME280;51842;47.450;8.654;2023-02-19T09:16:18;96443.19;;;8.37;82.23
44297;BME280;51842;47.450;8.654;2023-02-19T09:18:47;96449.97;;;8.51;83.61
44297;BME280;51842;47.450;8.654;2023-02-19T09:21:16;96455.06;;;8.52;83.17
44297;BME280;51842;47.450;8.654;2023-02-19T09:23:42;96446.63;;;8.55;83.20
44297;BME280;51842;47.450;8.654;2023-02-19T09:26:09;96457.34;;;8.61;83.75
44297;BME280;51842;47.450;8.654;2023-02-19T09:28:36;96445.22;;;8.65;83.63
44297;BME280;51842;47.450;8.654;2023-02-19T09:31:09;96450.91;;;8.68;83.61
44297;BME280;51842;47.450;8.654;2023-02-19T09:33:36;96461.28;;;8.70;83.50
44297;BME280;51842;47.450;8.654;2023-02-19T09:36:03;96465.44;;;8.66;83.94
44297;BME280;51842;47.450;8.654;2023-02-19T09:38:29;96459.19;;;8.60;84.56
44297;BME280;51842;47.450;8.654;2023-02-19T09:41:08;96460.91;;;8.54;85.66
44297;BME280;51842;47.450;8.654;2023-02-19T09:43:35;96465.53;;;8.47;86.84
44297;BME280;51842;47.450;8.654;2023-02-19T09:46:39;96456.75;;;8.58;87.47
44297;BME280;51842;47.450;8.654;2023-02-19T09:54:36;96465.25;;;8.25;90.64
44297;BME280;51842;47.450;8.654;2023-02-19T09:57:04;96467.78;;;8.32;91.21
44297;BME280;51842;47.450;8.654;2023-02-19T09:59:52;96481.63;;;8.22;93.09
44297;BME280;51842;47.450;8.654;2023-02-19T10:02:24;96476.97;;;8.18;93.66
44297;BME280;51842;47.450;8.654;2023-02-19T10:04:53;96480.88;;;8.03;94.70
44297;BME280;51842;47.450;8.654;2023-02-19T10:07:44;96474.09;;;8.07;96.02
44297;BME280;51842;47.450;8.654;2023-02-19T10:12:48;96478.28;;;7.85;97.91
44297;BME280;51842;47.450;8.654;2023-02-19T10:15:33;96472.16;;;7.84;98.13
44297;BME280;51842;47.450;8.654;2023-02-19T10:18:03;96474.13;;;7.89;98.86
44297;BME280;51842;47.450;8.654;2023-02-19T10:20:31;96473.94;;;7.91;98.73
44297;BME280;51842;47.450;8.654;2023-02-19T10:23:14;96471.63;;;7.94;99.02
44297;BME280;51842;47.450;8.654;2023-02-19T10:26:00;96469.44;;;7.91;97.75
44297;BME280;51842;47.450;8.654;2023-02-19T10:28:33;96477.28;;;7.98;97.98
44297;BME280;51842;47.450;8.654;2023-02-19T10:31:15;96469.81;;;8.06;97.27
44297;BME280;51842;47.450;8.654;2023-02-19T10:33:56;96472.22;;;8.08;95.94
44297;BME280;51842;47.450;8.654;2023-02-19T10:36:38;96465.72;;;8.22;95.37
44297;BME280;51842;47.450;8.654;2023-02-19T10:39:38;96452.81;;;8.38;93.57
44297;BME280;51842;47.450;8.654;2023-02-19T10:42:21;96458.41;;;8.71;92.15
44297;BME280;51842;47.450;8.654;2023-02-19T10:45:00;96461.16;;;9.00;90.05
44297;BME280;51842;47.450;8.654;2023-02-19T10:47:31;96460.09;;;9.13;87.79
44297;BME280;51842;47.450;8.654;2023-02-19T10:50:00;96459.03;;;9.37;87.21
44297;BME280;51842;47.450;8.654;2023-02-19T10:52:34;96467.81;;;9.66;85.95
44297;BME280;51842;47.450;8.654;2023-02-19T10:55:31;96457.00;;;9.85;84.02
44297;BME280;51842;47.450;8.654;2023-02-19T10:58:25;96459.38;;;10.15;81.94
44297;BME280;51842;47.450;8.654;2023-02-19T11:01:23;96455.59;;;10.11;80.72
44297;BME280;51842;47.450;8.654;2023-02-19T11:04:20;96455.56;;;10.39;78.99
44297;BME280;51842;47.450;8.654;2023-02-19T11:06:47;96458.41;;;11.05;76.82
44297;BME280;51842;47.450;8.654;2023-02-19T11:09:29;96461.25;;;10.99;74.56
44297;BME280;51842;47.450;8.654;2023-02-19T11:11:59;96448.22;;;11.02;72.73
44297;BME280;51842;47.450;8.654;2023-02-19T11:14:31;96456.34;;;11.29;73.00
44297;BME280;51842;47.450;8.654;2023-02-19T11:17:04;96461.47;;;11.58;71.56
44297;BME280;51842;47.450;8.654;2023-02-19T11:19:42;96468.50;;;11.86;70.29
44297;BME280;51842;47.450;8.654;2023-02-19T11:22:41;96473.22;;;12.06;69.08
44297;BME280;51842;47.450;8.654;2023-02-19T11:25:21;96455.91;;;12.41;66.18
44297;BME280;51842;47.450;8.654;2023-02-19T11:28:39;96443.16;;;12.85;64.98
44297;BME280;51842;47.450;8.654;2023-02-19T11:31:31;96434.91;;;12.92;63.52
44297;BME280;51842;47.450;8.654;2023-02-19T11:34:27;96443.25;;;12.58;64.03
44297;BME280;51842;47.450;8.654;2023-02-19T11:37:14;96456.66;;;12.63;64.68
44297;BME280;51842;47.450;8.654;2023-02-19T11:39:50;96450.34;;;12.80;65.15
44297;BME280;51842;47.450;8.654;2023-02-19T11:42:48;96450.69;;;12.93;63.71
44297;BME280;51842;47.450;8.654;2023-02-19T11:48:39;96451.25;;;12.58;64.68
44297;BME280;51842;47.450;8.654;2023-02-19T11:51:37;96458.81;;;12.66;64.12
44297;BME280;51842;47.450;8.654;2023-02-19T11:54:47;96449.78;;;12.78;64.00
44297;BME280;51842;47.450;8.654;2023-02-19T11:57:53;96445.78;;;12.80;63.74
44297;BME280;51842;47.450;8.654;2023-02-19T12:00:26;96441.28;;;12.86;63.00
44297;BME280;51842;47.450;8.654;2023-02-19T12:19:02;96428.63;;;12.34;64.04
44297;BME280;51842;47.450;8.654;2023-02-19T12:22:05;96422.81;;;12.10;64.84
44297;BME280;51842;47.450;8.654;2023-02-19T12:25:16;96428.91;;;12.37;63.32
44297;BME280;51842;47.450;8.654;2023-02-19T12:40:19;96417.34;;;11.94;63.15
44297;BME280;51842;47.450;8.654;2023-02-19T12:43:24;96420.53;;;11.96;63.43
44297;BME280;51842;47.450;8.654;2023-02-19T12:46:05;96417.44;;;11.82;62.94
44297;BME280;51842;47.450;8.654;2023-02-19T12:48:44;96418.47;;;11.54;63.94
44297;BME280;51842;47.450;8.654;2023-02-19T12:51:51;96428.91;;;11.34;64.61
44297;BME280;51842;47.450;8.654;2023-02-19T12:54:41;96422.25;;;11.58;63.84
44297;BME280;51842;47.450;8.654;2023-02-19T12:57:24;96421.28;;;11.43;64.43
44297;BME280;51842;47.450;8.654;2023-02-19T13:06:35;96436.28;;;11.49;65.55
44297;BME280;51842;47.450;8.654;2023-02-19T13:09:46;96443.78;;;11.52;64.95
44297;BME280;51842;47.450;8.654;2023-02-19T13:12:33;96456.03;;;11.48;64.75
44297;BME280;51842;47.450;8.654;2023-02-19T13:15:33;96447.91;;;11.16;64.96
44297;BME280;51842;47.450;8.654;2023-02-19T13:18:11;96443.91;;;10.79;66.14
44297;BME280;51842;47.450;8.654;2023-02-19T13:20:54;96439.22;;;10.86;66.95
44297;BME280;51842;47.450;8.654;2023-02-19T13:23:38;96450.06;;;10.80;67.32
44297;BME280;51842;47.450;8.654;2023-02-19T13:27:19;96440.69;;;10.94;66.91
44297;BME280;51842;47.450;8.654;2023-02-19T13:33:39;96432.53;;;11.06;66.24
44297;BME280;51842;47.450;8.654;2023-02-19T13:36:23;96445.03;;;11.00;66.05
44297;BME280;51842;47.450;8.654;2023-02-19T13:38:58;96441.03;;;11.03;66.61
44297;BME280;51842;47.450;8.654;2023-02-19T13:41:41;96435.97;;;11.01;66.58
44297;BME280;51842;47.450;8.654;2023-02-19T13:44:24;96437.75;;;10.96;66.32
44297;BME280;51842;47.450;8.654;2023-02-19T13:46:53;96443.03;;;10.91;67.06
44297;BME280;51842;47.450;8.654;2023-02-19T14:01:08;96433.53;;;10.27;66.47
44297;BME280;51842;47.450;8.654;2023-02-19T14:04:16;96429.09;;;10.33;66.83
44297;BME280;51842;47.450;8.654;2023-02-19T14:14:53;96433.44;;;10.22;66.61
44297;BME280;51842;47.450;8.654;2023-02-19T14:17:38;96416.97;;;10.25;66.53
44297;BME280;51842;47.450;8.654;2023-02-19T14:22:46;96410.06;;;10.41;65.81
44297;BME280;51842;47.450;8.654;2023-02-19T14:28:35;96425.47;;;10.39;66.18
44297;BME280;51842;47.450;8.654;2023-02-19T14:34:19;96414.66;;;10.29;65.74
44297;BME280;51842;47.450;8.654;2023-02-19T14:37:02;96424.50;;;10.28;65.76
44297;BME280;51842;47.450;8.654;2023-02-19T14:39:36;96417.72;;;10.54;65.41
44297;BME280;51842;47.450;8.654;2023-02-19T14:42:26;96420.47;;;10.59;64.95
44297;BME280;51842;47.450;8.654;2023-02-19T14:45:06;96417.31;;;10.62;64.64
44297;BME280;51842;47.450;8.654;2023-02-19T14:47:33;96408.44;;;10.57;64.36
44297;BME280;51842;47.450;8.654;2023-02-19T14:50:27;96421.59;;;10.47;64.75
44297;BME280;51842;47.450;8.654;2023-02-19T14:53:02;96422.38;;;10.30;65.34
44297;BME280;51842;47.450;8.654;2023-02-19T14:55:36;96409.38;;;10.17;65.70
44297;BME280;51842;47.450;8.654;2023-02-19T14:58:19;96403.78;;;10.02;66.11
44297;BME280;51842;47.450;8.654;2023-02-19T15:00:52;96392.50;;;9.94;67.01
44297;BME280;51842;47.450;8.654;2023-02-19T15:03:34;96400.31;;;10.01;66.93
44297;BME280;51842;47.450;8.654;2023-02-19T15:06:12;96394.69;;;9.98;67.18
44297;BME280;51842;47.450;8.654;2023-02-19T15:08:51;96395.81;;;10.02;67.44
44297;BME280;51842;47.450;8.654;2023-02-19T15:11:26;96403.38;;;9.93;67.86
44297;BME280;51842;47.450;8.654;2023-02-19T15:13:59;96403.47;;;9.98;67.72
44297;BME280;51842;47.450;8.654;2023-02-19T15:16:30;96402.03;;;9.90;67.68
44297;BME280;51842;47.450;8.654;2023-02-19T15:18:59;96404.72;;;9.79;68.02
44297;BME280;51842;47.450;8.654;2023-02-19T15:21:32;96417.03;;;9.68;68.31
44297;BME280;51842;47.450;8.654;2023-02-19T15:24:04;96419.50;;;9.58;68.39
44297;BME280;51842;47.450;8.654;2023-02-19T15:26:46;96434.34;;;9.54;68.05
44297;BME280;51842;47.450;8.654;2023-02-19T15:29:17;96429.16;;;9.47;68.89
44297;BME280;51842;47.450;8.654;2023-02-19T15:31:54;96445.31;;;9.57;68.45
44297;BME280;51842;47.450;8.654;2023-02-19T15:34:25;96456.75;;;9.58;68.93
44297;BME280;51842;47.450;8.654;2023-02-19T15:37:02;96460.22;;;9.58;68.50
44297;BME280;51842;47.450;8.654;2023-02-19T15:39:45;96451.22;;;9.47;67.78
44297;BME280;51842;47.450;8.654;2023-02-19T15:42:33;96464.34;;;9.37;68.30
44297;BME280;51842;47.450;8.654;2023-02-19T15:45:48;96468.81;;;9.37;68.15
44297;BME280;51842;47.450;8.654;2023-02-19T15:48:28;96467.09;;;9.31;68.38
44297;BME280;51842;47.450;8.654;2023-02-19T15:51:10;96472.53;;;9.36;68.35